Time;durP1;ratioP1;P1;durP2;ratioP2;P2;SDS_P1;SDS_P2;PMS_P1;PMS_P2;Temp;Humidity;BMP_temperature;BMP_pressure;BME280_temperature;BME280_humidity;BME280_pressure;Samples;Min_cycle;Max_cycle;Signal;HPM_P1;HPM_P2
2024/01/19 00:00:07;;;;;;;3.57;3.20;;;;;-1.30;100655.00;;;;4933057;29;20367;-71
2024/01/19 00:02:54;;;;;;;2.37;2.13;;;;;-1.20;100652.00;;;;4938116;29;20316;-72
2024/01/19 00:05:40;;;;;;;2.93;2.70;;;;;-1.20;100656.00;;;;4931634;29;20233;-71
2024/01/19 00:08:26;;;;;;;7.23;3.27;;;;;-1.30;100655.00;;;;4941655;28;20237;-70
2024/01/19 00:11:15;;;;;;;3.80;3.50;;;;;-1.20;100655.00;;;;4930358;29;20236;-71
2024/01/19 00:14:02;;;;;;;4.00;3.17;;;;;-1.30;100664.00;;;;4934239;29;20232;-71
2024/01/19 00:16:48;;;;;;;3.63;3.27;;;;;-1.20;100657.00;;;;4939590;29;20232;-70
2024/01/19 00:19:35;;;;;;;3.37;2.57;;;;;-1.20;100652.00;;;;4938495;29;20317;-71
2024/01/19 00:22:21;;;;;;;6.07;4.13;;;;;-1.20;100659.00;;;;4935982;28;20721;-70
2024/01/19 00:25:08;;;;;;;4.93;3.17;;;;;-1.20;100663.00;;;;4925657;29;20232;-71
2024/01/19 00:27:56;;;;;;;8.87;3.43;;;;;-1.20;100661.00;;;;4938150;29;20955;-70
2024/01/19 00:30:42;;;;;;;3.20;3.00;;;;;-1.20;100671.00;;;;4929893;29;20711;-71
2024/01/19 00:33:28;;;;;;;5.90;3.03;;;;;-1.20;100673.00;;;;4934230;28;21080;-71
2024/01/19 00:36:14;;;;;;;3.70;3.40;;;;;-1.20;100651.00;;;;4941445;29;20227;-70
2024/01/19 00:39:00;;;;;;;3.63;2.60;;;;;-1.20;100674.00;;;;4939957;29;20239;-73
2024/01/19 00:41:47;;;;;;;4.40;3.90;;;;;-1.30;100661.00;;;;4941493;29;20235;-72
2024/01/19 00:44:35;;;;;;;3.73;3.37;;;;;-1.30;100672.00;;;;4937874;29;20239;-69
2024/01/19 00:47:21;;;;;;;2.67;2.47;;;;;-1.20;100670.00;;;;4934008;29;20251;-71
2024/01/19 00:50:09;;;;;;;3.33;3.03;;;;;-1.20;100673.00;;;;4940689;29;20219;-71
2024/01/19 00:52:55;;;;;;;7.97;2.93;;;;;-1.10;100674.00;;;;4935154;28;20738;-72
2024/01/19 00:55:41;;;;;;;3.00;2.77;;;;;-1.10;100680.00;;;;4931341;29;20259;-71
2024/01/19 00:58:28;;;;;;;4.63;3.40;;;;;-1.10;100686.00;;;;4923726;29;20289;-70
2024/01/19 01:01:15;;;;;;;3.37;3.03;;;;;-1.20;100681.00;;;;4936647;29;20681;-71
2024/01/19 01:04:02;;;;;;;3.43;3.00;;;;;-1.20;100685.00;;;;4936327;28;20259;-71
2024/01/19 01:06:49;;;;;;;3.20;2.70;;;;;-1.20;100690.00;;;;4931535;29;20329;-71
2024/01/19 01:09:36;;;;;;;3.93;3.40;;;;;-1.10;100679.00;;;;4932846;29;20688;-71
2024/01/19 01:12:22;;;;;;;4.57;4.00;;;;;-1.20;100690.00;;;;4920655;29;20232;-70
2024/01/19 01:15:09;;;;;;;4.40;3.80;;;;;-1.20;100695.00;;;;4921397;29;20377;-72
2024/01/19 01:18:01;;;;;;;7.17;4.43;;;;;-1.20;100693.00;;;;4920373;29;20241;-72
2024/01/19 01:20:49;;;;;;;7.27;3.43;;;;;-1.20;100702.00;;;;4927465;29;20233;-71
2024/01/19 01:23:36;;;;;;;4.40;4.00;;;;;-1.20;100717.00;;;;4938078;29;20240;-71
2024/01/19 01:26:22;;;;;;;3.47;3.17;;;;;-1.30;100707.00;;;;4928900;29;20290;-71
2024/01/19 01:29:08;;;;;;;3.43;3.20;;;;;-1.30;100733.00;;;;4933057;29;20239;-72
2024/01/19 01:31:55;;;;;;;2.77;2.47;;;;;-1.30;100729.00;;;;4942098;29;20244;-71
2024/01/19 01:34:42;;;;;;;3.20;2.83;;;;;-1.30;100737.00;;;;4937738;29;20633;-72
2024/01/19 01:37:29;;;;;;;6.07;4.17;;;;;-1.30;100744.00;;;;4928111;29;20240;-71
2024/01/19 01:40:16;;;;;;;4.10;3.17;;;;;-1.30;100756.00;;;;4922924;29;23244;-70
2024/01/19 01:43:04;;;;;;;4.57;3.03;;;;;-1.40;100765.00;;;;4929466;29;20306;-71
2024/01/19 01:45:51;;;;;;;3.43;2.87;;;;;-1.40;100755.00;;;;4923261;29;20245;-71
2024/01/19 01:48:37;;;;;;;3.53;3.30;;;;;-1.40;100770.00;;;;4935643;29;20232;-72
2024/01/19 01:51:25;;;;;;;3.33;3.07;;;;;-1.30;100778.00;;;;4927522;29;20721;-72
2024/01/19 01:54:14;;;;;;;4.77;4.20;;;;;-1.20;100762.00;;;;4936562;28;20360;-72
2024/01/19 01:57:01;;;;;;;4.33;3.50;;;;;-1.20;100768.00;;;;4930729;29;20886;-71
2024/01/19 01:59:48;;;;;;;5.03;4.30;;;;;-1.20;100769.00;;;;4934550;29;20232;-69
2024/01/19 02:02:35;;;;;;;4.00;3.63;;;;;-1.20;100775.00;;;;4929629;28;20235;-71
2024/01/19 02:05:21;;;;;;;3.90;3.33;;;;;-1.10;100764.00;;;;4926314;29;20604;-70
2024/01/19 02:08:09;;;;;;;3.73;3.27;;;;;-1.10;100755.00;;;;4938797;29;20233;-71
2024/01/19 02:10:56;;;;;;;2.90;2.70;;;;;-1.00;100764.00;;;;4912938;29;20236;-71
2024/01/19 02:13:42;;;;;;;3.20;2.90;;;;;-0.90;100777.00;;;;4926529;28;20241;-71
2024/01/19 02:16:28;;;;;;;7.03;4.47;;;;;-0.90;100782.00;;;;4939620;29;20283;-71
2024/01/19 02:19:15;;;;;;;6.43;3.17;;;;;-0.80;100774.00;;;;4932103;29;20308;-72
2024/01/19 02:22:02;;;;;;;4.97;3.57;;;;;-0.90;100779.00;;;;4936732;29;20244;-71
2024/01/19 02:24:50;;;;;;;5.10;4.30;;;;;-0.90;100776.00;;;;4935669;29;20233;-70
2024/01/19 02:27:36;;;;;;;5.53;3.77;;;;;-0.90;100778.00;;;;4933866;29;20945;-72
2024/01/19 02:30:22;;;;;;;5.90;4.60;;;;;-0.90;100782.00;;;;4933523;28;20248;-71
2024/01/19 02:33:09;;;;;;;3.93;3.53;;;;;-0.90;100797.00;;;;4940448;28;20252;-71
2024/01/19 02:35:55;;;;;;;4.27;3.33;;;;;-1.00;100792.00;;;;4914139;29;20255;-71
2024/01/19 02:38:42;;;;;;;5.50;4.27;;;;;-1.00;100797.00;;;;4938619;29;20232;-71
2024/01/19 02:41:30;;;;;;;4.47;3.63;;;;;-1.10;100804.00;;;;4936295;29;20244;-72
2024/01/19 02:44:16;;;;;;;6.60;3.77;;;;;-1.20;100804.00;;;;4943483;28;20616;-72
2024/01/19 02:47:02;;;;;;;5.47;4.60;;;;;-1.10;100811.00;;;;4935197;29;20241;-70
2024/01/19 02:49:49;;;;;;;6.33;4.40;;;;;-1.10;100806.00;;;;4936174;29;20713;-70
2024/01/19 02:52:35;;;;;;;6.47;4.47;;;;;-1.10;100808.00;;;;4937549;28;20237;-68
2024/01/19 02:55:21;;;;;;;5.97;4.77;;;;;-1.10;100814.00;;;;4937890;29;20335;-70
2024/01/19 02:58:09;;;;;;;9.97;3.53;;;;;-1.10;100813.00;;;;4935725;29;20245;-71
2024/01/19 03:00:55;;;;;;;6.90;5.40;;;;;-1.10;100805.00;;;;4915026;29;20240;-71
2024/01/19 03:03:41;;;;;;;5.97;4.37;;;;;-1.10;100807.00;;;;4920368;28;20236;-71
2024/01/19 03:06:28;;;;;;;7.00;5.03;;;;;-1.00;100809.00;;;;4917382;29;20240;-69
2024/01/19 03:09:14;;;;;;;6.63;4.47;;;;;-0.90;100815.00;;;;4923027;29;20238;-71
2024/01/19 03:12:00;;;;;;;8.77;5.63;;;;;-0.90;100824.00;;;;4917834;29;20369;-71
2024/01/19 03:14:48;;;;;;;9.03;5.77;;;;;-0.80;100820.00;;;;4929179;29;20240;-70
2024/01/19 03:17:34;;;;;;;10.90;6.63;;;;;-0.80;100824.00;;;;4924181;29;20244;-70
2024/01/19 03:20:21;;;;;;;9.43;6.37;;;;;-0.80;100828.00;;;;4939168;29;20236;-72
2024/01/19 03:23:07;;;;;;;8.50;5.03;;;;;-0.80;100835.00;;;;4941803;28;20315;-72
2024/01/19 03:25:54;;;;;;;6.60;5.03;;;;;-0.80;100837.00;;;;4938335;29;20364;-71
2024/01/19 03:28:40;;;;;;;5.60;4.97;;;;;-0.80;100839.00;;;;4931912;29;20229;-72
2024/01/19 03:31:28;;;;;;;7.73;5.67;;;;;-0.70;100844.00;;;;4932409;29;20604;-70
2024/01/19 03:34:14;;;;;;;14.63;4.77;;;;;-0.70;100831.00;;;;4927074;28;20245;-71
2024/01/19 03:37:03;;;;;;;8.53;6.97;;;;;-0.70;100848.00;;;;4934661;29;20268;-70
2024/01/19 03:39:49;;;;;;;9.73;6.77;;;;;-0.70;100847.00;;;;4940671;29;20607;-71
2024/01/19 03:42:36;;;;;;;14.50;7.33;;;;;-0.60;100848.00;;;;4931424;28;20789;-71
2024/01/19 03:45:22;;;;;;;11.43;7.40;;;;;-0.50;100867.00;;;;4941420;29;20285;-69
2024/01/19 03:48:10;;;;;;;10.30;7.20;;;;;-0.50;100858.00;;;;4931440;29;20611;-69
2024/01/19 03:50:57;;;;;;;8.67;7.40;;;;;-0.50;100859.00;;;;4910213;29;20727;-71
2024/01/19 03:53:44;;;;;;;12.23;8.70;;;;;-0.50;100871.00;;;;4929380;28;20261;-70
2024/01/19 03:56:30;;;;;;;9.57;7.17;;;;;-0.40;100867.00;;;;4928356;29;20253;-69
2024/01/19 03:59:16;;;;;;;12.43;7.43;;;;;-0.40;100866.00;;;;4939794;29;20261;-70
2024/01/19 04:02:05;;;;;;;11.63;7.37;;;;;-0.50;100886.00;;;;4924457;29;20408;-72
2024/01/19 04:04:53;;;;;;;20.23;9.90;;;;;-0.50;100877.00;;;;4934296;29;20390;-70
2024/01/19 04:07:39;;;;;;;14.80;8.37;;;;;-0.50;100879.00;;;;4939824;29;20259;-70
2024/01/19 04:10:26;;;;;;;22.37;8.83;;;;;-0.50;100883.00;;;;4937710;29;20240;-71
2024/01/19 04:13:12;;;;;;;11.53;7.67;;;;;-0.50;100878.00;;;;4936299;28;20369;-71
2024/01/19 04:15:58;;;;;;;19.33;9.13;;;;;-0.40;100873.00;;;;4918318;29;20768;-72
2024/01/19 04:18:45;;;;;;;15.33;9.83;;;;;-0.40;100885.00;;;;4932557;29;20600;-71
2024/01/19 04:21:32;;;;;;;17.37;6.83;;;;;-0.40;100878.00;;;;4923464;29;20896;-70
2024/01/19 04:24:19;;;;;;;18.87;6.97;;;;;-0.30;100891.00;;;;4938822;28;20241;-71
2024/01/19 04:27:05;;;;;;;12.57;6.93;;;;;-0.30;100893.00;;;;4939152;29;20725;-70
2024/01/19 04:29:52;;;;;;;26.57;9.10;;;;;-0.30;100900.00;;;;4936166;29;20236;-71
2024/01/19 04:32:38;;;;;;;14.37;8.77;;;;;-0.30;100903.00;;;;4927205;28;20757;-71
2024/01/19 04:35:25;;;;;;;13.83;7.53;;;;;-0.30;100915.00;;;;4937190;29;20243;-71
2024/01/19 04:38:12;;;;;;;13.93;7.40;;;;;-0.30;100912.00;;;;4926116;29;20238;-69
2024/01/19 04:40:58;;;;;;;17.50;8.10;;;;;-0.30;100916.00;;;;4924163;29;20415;-71
2024/01/19 04:43:45;;;;;;;13.47;7.47;;;;;-0.30;100916.00;;;;4936852;28;20619;-71
2024/01/19 04:46:31;;;;;;;14.53;7.83;;;;;-0.20;100926.00;;;;4932245;29;20314;-71
2024/01/19 04:49:17;;;;;;;14.57;6.93;;;;;-0.30;100925.00;;;;4934406;29;20279;-70
2024/01/19 04:52:04;;;;;;;27.17;10.67;;;;;-0.20;100930.00;;;;4937473;29;20240;-71
2024/01/19 04:54:52;;;;;;;13.07;8.63;;;;;-0.20;100933.00;;;;4942546;28;20236;-70
2024/01/19 04:57:38;;;;;;;12.20;7.10;;;;;-0.20;100939.00;;;;4922492;29;20234;-71
2024/01/19 05:00:24;;;;;;;15.37;9.47;;;;;-0.20;100927.00;;;;4934184;29;20242;-69
2024/01/19 05:03:11;;;;;;;14.37;8.07;;;;;-0.10;100942.00;;;;4934090;28;20224;-70
2024/01/19 05:05:57;;;;;;;11.67;7.17;;;;;-0.10;100939.00;;;;4907321;29;20391;-70
2024/01/19 05:08:44;;;;;;;15.00;7.00;;;;;-0.10;100947.00;;;;4933929;29;20220;-72
2024/01/19 05:11:32;;;;;;;19.37;8.73;;;;;-0.10;100947.00;;;;4930383;29;20215;-71
2024/01/19 05:14:18;;;;;;;11.77;6.43;;;;;0.00;100947.00;;;;4930543;29;20246;-69
2024/01/19 05:17:04;;;;;;;20.87;9.40;;;;;0.00;100951.00;;;;4940828;29;20678;-69
2024/01/19 05:19:50;;;;;;;15.87;7.97;;;;;0.00;100961.00;;;;4935818;29;20351;-69
2024/01/19 05:22:37;;;;;;;19.00;8.13;;;;;0.00;100959.00;;;;4928806;28;20235;-70
2024/01/19 05:25:23;;;;;;;24.70;10.30;;;;;0.00;100952.00;;;;4937806;29;20235;-69
2024/01/19 05:28:11;;;;;;;21.13;9.37;;;;;0.00;100962.00;;;;4940181;29;20233;-69
2024/01/19 05:30:57;;;;;;;13.43;8.37;;;;;0.10;100967.00;;;;4905106;29;20255;-70
2024/01/19 05:33:43;;;;;;;14.90;8.50;;;;;0.10;100972.00;;;;4936658;28;20730;-69
2024/01/19 05:36:30;;;;;;;17.20;7.30;;;;;0.10;100962.00;;;;4931173;29;20934;-70
2024/01/19 05:39:16;;;;;;;19.93;7.97;;;;;0.10;100965.00;;;;4939535;29;20465;-69
2024/01/19 05:42:03;;;;;;;15.87;8.77;;;;;0.10;100964.00;;;;4937061;29;20245;-70
2024/01/19 05:44:50;;;;;;;17.17;6.23;;;;;0.10;100977.00;;;;4933241;29;20327;-69
2024/01/19 05:47:37;;;;;;;12.57;7.43;;;;;0.10;100967.00;;;;4929012;29;20240;-69
2024/01/19 05:50:23;;;;;;;12.27;8.40;;;;;0.10;100976.00;;;;4929997;29;20229;-69
2024/01/19 05:53:09;;;;;;;17.00;8.90;;;;;0.10;100984.00;;;;4935808;28;20239;-71
2024/01/19 05:55:56;;;;;;;23.43;9.33;;;;;0.10;100999.00;;;;4915435;29;20243;-69
2024/01/19 05:58:42;;;;;;;10.47;6.33;;;;;0.20;101006.00;;;;4930139;29;20240;-69
2024/01/19 06:01:31;;;;;;;20.40;7.67;;;;;0.20;101016.00;;;;4932135;29;20895;-70
2024/01/19 06:04:18;;;;;;;12.53;7.30;;;;;0.10;101001.00;;;;4935157;28;20242;-67
2024/01/19 06:07:05;;;;;;;12.97;7.97;;;;;0.20;101010.00;;;;4942086;29;20288;-70
2024/01/19 06:09:51;;;;;;;16.73;7.93;;;;;0.20;101015.00;;;;4931618;29;20245;-71
2024/01/19 06:12:38;;;;;;;10.60;7.37;;;;;0.20;101015.00;;;;4928169;28;20237;-72
2024/01/19 06:15:24;;;;;;;12.73;6.13;;;;;0.20;101023.00;;;;4936070;29;20618;-70
2024/01/19 06:18:11;;;;;;;14.57;8.97;;;;;0.30;101029.00;;;;4930514;29;20313;-69
2024/01/19 06:21:00;;;;;;;11.63;5.37;;;;;0.30;101034.00;;;;4915679;29;20636;-70
2024/01/19 06:23:47;;;;;;;10.80;6.03;;;;;0.20;101040.00;;;;4929355;29;20240;-70
2024/01/19 06:26:33;;;;;;;13.43;6.73;;;;;0.30;101047.00;;;;4935021;29;20246;-70
2024/01/19 06:29:20;;;;;;;10.97;7.23;;;;;0.30;101051.00;;;;4946694;29;20270;-70
2024/01/19 06:32:06;;;;;;;14.23;7.60;;;;;0.30;101059.00;;;;4930232;29;20255;-71
2024/01/19 06:34:54;;;;;;;10.53;5.40;;;;;0.30;101057.00;;;;4934309;29;20242;-70
2024/01/19 06:37:41;;;;;;;7.33;5.40;;;;;0.40;101066.00;;;;4926996;29;20237;-70
2024/01/19 06:40:27;;;;;;;13.83;8.20;;;;;0.40;101065.00;;;;4935215;29;20309;-71
2024/01/19 06:43:13;;;;;;;11.63;4.93;;;;;0.40;101064.00;;;;4940570;28;20237;-69
2024/01/19 06:46:00;;;;;;;14.33;6.87;;;;;0.30;101064.00;;;;4919354;29;20251;-69
2024/01/19 06:48:46;;;;;;;13.10;8.47;;;;;0.40;101059.00;;;;4926241;29;20762;-70
2024/01/19 06:51:34;;;;;;;14.73;8.87;;;;;0.40;101062.00;;;;4937314;29;20225;-71
2024/01/19 06:54:20;;;;;;;12.27;6.23;;;;;0.40;101067.00;;;;4945316;29;20240;-71
2024/01/19 06:57:07;;;;;;;15.00;7.20;;;;;0.40;101071.00;;;;4931220;29;20297;-70
2024/01/19 06:59:53;;;;;;;17.27;8.47;;;;;0.40;101090.00;;;;4932890;29;20240;-71
2024/01/19 07:02:39;;;;;;;17.17;9.27;;;;;0.40;101093.00;;;;4926185;28;20314;-71
2024/01/19 07:05:25;;;;;;;12.60;6.97;;;;;0.40;101108.00;;;;4931712;29;20236;-70
2024/01/19 07:08:13;;;;;;;10.03;7.07;;;;;0.40;101116.00;;;;4930159;29;20242;-70
2024/01/19 07:10:59;;;;;;;17.40;10.63;;;;;0.40;101117.00;;;;4928134;29;20234;-71
2024/01/19 07:13:45;;;;;;;16.73;7.37;;;;;0.40;101116.00;;;;4931916;29;20240;-70
2024/01/19 07:16:32;;;;;;;12.53;7.77;;;;;0.40;101116.00;;;;4936390;29;20236;-71
2024/01/19 07:19:18;;;;;;;11.03;6.63;;;;;0.40;101117.00;;;;4932050;29;20315;-72
2024/01/19 07:22:04;;;;;;;14.47;8.67;;;;;0.40;101121.00;;;;4936254;29;20230;-72
2024/01/19 07:24:52;;;;;;;14.70;9.10;;;;;0.50;101132.00;;;;4927830;29;20914;-72
2024/01/19 07:27:38;;;;;;;9.33;7.00;;;;;0.50;101135.00;;;;4926766;29;20716;-72
2024/01/19 07:30:24;;;;;;;10.63;7.33;;;;;0.50;101150.00;;;;4931729;29;20309;-72
2024/01/19 07:33:11;;;;;;;12.60;7.03;;;;;0.60;101138.00;;;;4926381;29;20956;-72
2024/01/19 07:36:08;;;;;;;13.33;8.10;;;;;0.60;101145.00;;;;4938204;29;20245;-73
2024/01/19 07:38:55;;;;;;;18.33;7.77;;;;;0.60;101148.00;;;;4933959;29;20643;-71
2024/01/19 07:41:43;;;;;;;20.83;8.57;;;;;0.60;101156.00;;;;4929889;29;20760;-71
2024/01/19 07:44:29;;;;;;;18.67;8.37;;;;;0.60;101152.00;;;;4930285;29;20250;-72
2024/01/19 07:47:15;;;;;;;18.13;9.23;;;;;0.50;101149.00;;;;4936496;29;20243;-73
2024/01/19 07:50:04;;;;;;;12.77;7.27;;;;;0.50;101154.00;;;;4927260;29;20242;-70
2024/01/19 07:52:51;;;;;;;15.33;8.13;;;;;0.50;101153.00;;;;4926974;29;20236;-71
2024/01/19 07:55:37;;;;;;;8.97;7.40;;;;;0.60;101160.00;;;;4924473;29;20912;-72
2024/01/19 07:58:25;;;;;;;14.03;7.67;;;;;0.60;101157.00;;;;4920661;29;20285;-72
2024/01/19 08:01:11;;;;;;;21.50;7.40;;;;;0.60;101147.00;;;;4932546;29;20236;-73
2024/01/19 08:03:58;;;;;;;16.50;7.30;;;;;0.60;101145.00;;;;4926606;29;20238;-71
2024/01/19 08:06:44;;;;;;;10.83;7.07;;;;;0.70;101158.00;;;;4929545;29;20261;-70
2024/01/19 08:09:31;;;;;;;13.10;7.43;;;;;0.80;101159.00;;;;4935427;29;20247;-71
2024/01/19 08:12:17;;;;;;;10.47;6.23;;;;;0.90;101164.00;;;;4937133;29;20234;-70
2024/01/19 08:15:08;;;;;;;10.33;6.93;;;;;0.90;101173.00;;;;4939526;29;20280;-71
2024/01/19 08:17:55;;;;;;;9.87;6.40;;;;;0.90;101182.00;;;;4934226;29;20310;-72
2024/01/19 08:20:41;;;;;;;13.97;6.97;;;;;0.90;101190.00;;;;4939028;29;20226;-70
2024/01/19 08:23:27;;;;;;;11.57;6.53;;;;;0.90;101197.00;;;;4939561;29;20239;-72
2024/01/19 08:26:13;;;;;;;14.07;8.13;;;;;0.80;101191.00;;;;4938785;29;20232;-71
2024/01/19 08:29:01;;;;;;;13.90;6.83;;;;;0.80;101209.00;;;;4939178;29;20235;-71
2024/01/19 08:31:52;;;;;;;16.77;8.43;;;;;0.70;101211.00;;;;4934034;29;20844;-69
2024/01/19 08:34:43;;;;;;;16.37;7.20;;;;;0.80;101219.00;;;;4933375;29;20354;-70
2024/01/19 08:37:30;;;;;;;9.47;6.53;;;;;0.80;101216.00;;;;4944260;29;20724;-72
2024/01/19 08:40:16;;;;;;;7.57;6.33;;;;;0.80;101225.00;;;;4938938;29;20280;-72
2024/01/19 08:43:02;;;;;;;12.93;8.00;;;;;0.80;101243.00;;;;4934602;29;20240;-70
2024/01/19 08:45:49;;;;;;;11.00;6.90;;;;;0.80;101249.00;;;;4942836;29;20854;-71
2024/01/19 08:48:37;;;;;;;12.07;6.53;;;;;0.90;101250.00;;;;4930754;29;20244;-70
2024/01/19 08:51:24;;;;;;;11.93;7.37;;;;;0.90;101240.00;;;;4937596;29;20236;-70
2024/01/19 08:54:13;;;;;;;11.33;6.27;;;;;0.90;101247.00;;;;4921461;29;20748;-71
2024/01/19 08:57:00;;;;;;;11.00;7.30;;;;;0.90;101255.00;;;;4932782;29;20232;-71
2024/01/19 08:59:49;;;;;;;12.37;6.43;;;;;1.00;101253.00;;;;4921874;29;20246;-71
2024/01/19 09:02:35;;;;;;;13.57;7.03;;;;;1.00;101254.00;;;;4932983;29;20236;-72
2024/01/19 09:05:27;;;;;;;12.73;7.17;;;;;1.10;101268.00;;;;4931956;29;20240;-70
2024/01/19 09:08:13;;;;;;;12.33;6.87;;;;;1.10;101268.00;;;;4928986;29;20239;-70
2024/01/19 09:11:00;;;;;;;12.10;5.83;;;;;1.10;101267.00;;;;4919787;29;20229;-71
2024/01/19 09:13:46;;;;;;;11.90;5.67;;;;;1.10;101270.00;;;;4935057;29;20240;-72
2024/01/19 09:16:32;;;;;;;10.70;6.07;;;;;1.10;101281.00;;;;4930298;29;20378;-71
2024/01/19 09:19:18;;;;;;;11.17;7.03;;;;;1.10;101291.00;;;;4925087;29;20234;-70
2024/01/19 09:22:06;;;;;;;7.30;5.37;;;;;1.00;101288.00;;;;4937842;29;20275;-70
2024/01/19 09:24:52;;;;;;;7.57;5.27;;;;;1.10;101294.00;;;;4933194;29;20750;-70
2024/01/19 09:27:38;;;;;;;11.97;7.03;;;;;1.10;101306.00;;;;4940447;29;20789;-71
2024/01/19 09:30:24;;;;;;;10.43;6.13;;;;;1.20;101287.00;;;;4939308;29;20232;-70
2024/01/19 09:33:11;;;;;;;12.70;6.53;;;;;1.10;101312.00;;;;4931781;29;20342;-71
2024/01/19 09:35:57;;;;;;;11.80;7.17;;;;;1.20;101301.00;;;;4925624;29;20292;-70
2024/01/19 09:38:44;;;;;;;13.87;7.33;;;;;1.20;101305.00;;;;4927220;29;20229;-71
2024/01/19 09:41:37;;;;;;;13.47;6.83;;;;;1.20;101319.00;;;;4937174;29;20242;-71
2024/01/19 09:44:27;;;;;;;13.17;8.10;;;;;1.10;101330.00;;;;4941828;28;20235;-71
2024/01/19 09:47:17;;;;;;;11.17;5.63;;;;;1.20;101335.00;;;;4937218;29;20385;-71
2024/01/19 09:50:05;;;;;;;9.80;6.73;;;;;1.30;101340.00;;;;4930011;29;20250;-70
2024/01/19 09:52:57;;;;;;;13.27;7.20;;;;;1.30;101341.00;;;;4924690;29;20637;-70
2024/01/19 09:55:47;;;;;;;13.00;6.67;;;;;1.30;101342.00;;;;4926060;29;20350;-70
2024/01/19 09:58:33;;;;;;;14.50;8.33;;;;;1.30;101344.00;;;;4937147;29;20233;-70
2024/01/19 10:01:19;;;;;;;11.80;8.10;;;;;1.40;101362.00;;;;4939027;29;20243;-71
2024/01/19 10:04:09;;;;;;;12.63;6.23;;;;;1.40;101359.00;;;;4947938;28;20241;-71
2024/01/19 10:06:55;;;;;;;15.57;6.67;;;;;1.20;101360.00;;;;4935503;29;20246;-71
2024/01/19 10:09:42;;;;;;;9.97;5.80;;;;;1.30;101365.00;;;;4938541;29;20230;-71
2024/01/19 10:12:33;;;;;;;10.27;6.63;;;;;1.40;101377.00;;;;4934757;29;20269;-70
2024/01/19 10:15:19;;;;;;;11.80;6.77;;;;;1.40;101372.00;;;;4938045;29;20255;-73
2024/01/19 10:18:06;;;;;;;12.60;8.23;;;;;1.40;101365.00;;;;4939715;29;20240;-70
2024/01/19 10:20:54;;;;;;;13.03;7.43;;;;;1.50;101369.00;;;;4935612;29;20238;-72
2024/01/19 10:23:41;;;;;;;8.50;6.40;;;;;1.60;101379.00;;;;4938350;29;20748;-72
2024/01/19 10:26:28;;;;;;;13.20;7.33;;;;;1.60;101387.00;;;;4944870;29;20239;-71
2024/01/19 10:29:16;;;;;;;11.20;6.73;;;;;1.60;101370.00;;;;4926360;29;20395;-72
2024/01/19 10:32:05;;;;;;;9.60;5.67;;;;;1.60;101395.00;;;;4933666;29;20269;-70
2024/01/19 10:35:05;;;;;;;14.07;6.63;;;;;1.70;101400.00;;;;4932999;29;20287;-72
2024/01/19 10:37:52;;;;;;;12.10;6.03;;;;;1.70;101377.00;;;;4940370;29;20263;-71
2024/01/19 10:40:38;;;;;;;12.67;6.73;;;;;1.80;101400.00;;;;4936344;29;20814;-72
2024/01/19 10:43:24;;;;;;;10.77;7.33;;;;;1.80;101393.00;;;;4929681;29;20241;-69
2024/01/19 10:46:21;;;;;;;18.13;7.57;;;;;1.80;101381.00;;;;4934706;29;20243;-73
2024/01/19 10:49:09;;;;;;;8.20;6.90;;;;;1.90;101382.00;;;;4934358;29;20238;-72
2024/01/19 10:51:56;;;;;;;10.80;6.73;;;;;1.80;101404.00;;;;4932631;28;20247;-73
2024/01/19 10:54:48;;;;;;;10.90;6.63;;;;;1.80;101402.00;;;;4934357;29;20759;-71
2024/01/19 10:57:35;;;;;;;13.27;6.57;;;;;1.90;101406.00;;;;4946159;29;20288;-71
2024/01/19 11:00:23;;;;;;;11.07;6.40;;;;;2.00;101410.00;;;;4936440;29;20274;-72
2024/01/19 11:03:11;;;;;;;9.60;7.30;;;;;2.00;101401.00;;;;4941225;28;20713;-72
2024/01/19 11:05:58;;;;;;;13.20;7.67;;;;;2.00;101404.00;;;;4915173;29;20242;-71
2024/01/19 11:08:44;;;;;;;12.33;7.30;;;;;2.00;101400.00;;;;4928936;29;20314;-74
2024/01/19 11:11:32;;;;;;;14.70;8.13;;;;;2.00;101408.00;;;;4937607;29;20300;-71
2024/01/19 11:14:19;;;;;;;11.70;7.43;;;;;2.00;101408.00;;;;4938809;29;20321;-72
2024/01/19 11:17:07;;;;;;;12.20;7.23;;;;;1.90;101410.00;;;;4937724;29;20264;-71
2024/01/19 11:19:55;;;;;;;8.13;6.27;;;;;2.00;101409.00;;;;4928947;29;20244;-71
2024/01/19 11:22:41;;;;;;;8.27;5.23;;;;;2.00;101411.00;;;;4938040;29;20556;-73
2024/01/19 11:25:41;;;;;;;13.20;6.20;;;;;2.00;101403.00;;;;4933016;29;20323;-72
2024/01/19 11:28:42;;;;;;;9.53;6.53;;;;;2.10;101410.00;;;;4938267;29;20868;-72
2024/01/19 11:31:30;;;;;;;14.87;7.67;;;;;2.10;101400.00;;;;4939272;29;20739;-72
2024/01/19 11:34:45;;;;;;;8.83;6.10;;;;;2.10;101394.00;;;;4941665;29;20321;-72
2024/01/19 11:37:44;;;;;;;8.47;6.90;;;;;2.10;101406.00;;;;4906897;29;20279;-72
2024/01/19 11:40:43;;;;;;;11.83;7.00;;;;;2.00;101403.00;;;;4919759;29;20291;-70
2024/01/19 11:43:39;;;;;;;10.33;6.70;;;;;2.10;101402.00;;;;4938314;28;20877;-73
2024/01/19 11:46:41;;;;;;;14.30;8.47;;;;;2.20;101399.00;;;;4942426;29;20613;-71
2024/01/19 11:49:47;;;;;;;12.20;6.93;;;;;2.20;101395.00;;;;4936006;29;20305;-70
2024/01/19 11:52:38;;;;;;;11.47;7.43;;;;;2.20;101391.00;;;;4926784;29;20939;-70
2024/01/19 11:55:43;;;;;;;14.77;8.87;;;;;2.10;101399.00;;;;4933342;29;20304;-70
2024/01/19 11:58:38;;;;;;;11.47;6.57;;;;;2.10;101393.00;;;;4938445;29;20648;-71
2024/01/19 12:01:24;;;;;;;10.07;5.73;;;;;2.20;101397.00;;;;4932347;29;20311;-73
2024/01/19 12:04:13;;;;;;;10.60;6.93;;;;;2.30;101394.00;;;;4927097;29;20733;-71
2024/01/19 12:07:06;;;;;;;17.83;8.10;;;;;2.30;101410.00;;;;4931559;29;20243;-71
2024/01/19 12:10:06;;;;;;;18.50;8.20;;;;;2.40;101413.00;;;;4938230;29;20240;-69
2024/01/19 12:12:54;;;;;;;16.10;8.63;;;;;2.50;101420.00;;;;4935505;29;20244;-71
2024/01/19 12:15:41;;;;;;;20.33;9.40;;;;;2.50;101409.00;;;;4934604;29;20251;-71
2024/01/19 12:18:28;;;;;;;18.53;9.57;;;;;2.50;101418.00;;;;4928328;29;20786;-70
2024/01/19 12:21:14;;;;;;;21.67;8.57;;;;;2.40;101414.00;;;;4936894;29;20387;-71
2024/01/19 12:24:00;;;;;;;17.93;9.43;;;;;2.40;101417.00;;;;4938333;29;20243;-70
2024/01/19 12:26:50;;;;;;;17.17;9.20;;;;;2.40;101422.00;;;;4929366;29;20237;-70
2024/01/19 12:29:38;;;;;;;19.47;10.17;;;;;2.40;101442.00;;;;4937603;29;20244;-71
2024/01/19 12:32:27;;;;;;;17.27;8.70;;;;;2.40;101431.00;;;;4931622;29;20359;-72
2024/01/19 12:35:14;;;;;;;26.07;9.37;;;;;2.60;101426.00;;;;4933723;29;20232;-73
2024/01/19 12:38:00;;;;;;;15.77;8.87;;;;;2.60;101433.00;;;;4934756;29;20249;-72
2024/01/19 12:40:46;;;;;;;17.33;9.77;;;;;2.60;101437.00;;;;4931199;29;20254;-71
2024/01/19 12:43:33;;;;;;;16.40;9.67;;;;;2.60;101435.00;;;;4936249;28;20263;-70
2024/01/19 12:46:23;;;;;;;19.03;9.60;;;;;2.60;101432.00;;;;4930132;29;20228;-72
2024/01/19 12:49:09;;;;;;;19.13;11.07;;;;;2.50;101441.00;;;;4932125;29;20247;-72
2024/01/19 12:51:55;;;;;;;19.20;10.47;;;;;2.70;101420.00;;;;4932185;29;20636;-72
2024/01/19 12:54:42;;;;;;;28.00;10.07;;;;;2.60;101429.00;;;;4934030;29;20231;-71
2024/01/19 12:57:30;;;;;;;20.10;9.83;;;;;2.60;101426.00;;;;4939409;29;20231;-72
2024/01/19 13:00:18;;;;;;;17.93;8.90;;;;;2.70;101434.00;;;;4931115;29;21005;-72
2024/01/19 13:03:06;;;;;;;20.00;10.90;;;;;2.80;101440.00;;;;4934575;28;20609;-72
2024/01/19 13:05:52;;;;;;;16.63;9.63;;;;;2.70;101436.00;;;;4931384;29;20232;-74
2024/01/19 13:08:39;;;;;;;16.73;10.43;;;;;2.70;101432.00;;;;4932964;29;20249;-72
2024/01/19 13:11:26;;;;;;;21.67;9.07;;;;;2.70;101448.00;;;;4933499;29;21135;-73
2024/01/19 13:14:13;;;;;;;18.00;10.80;;;;;2.70;101448.00;;;;4931969;29;20751;-70
2024/01/19 13:17:03;;;;;;;24.00;10.37;;;;;2.70;101443.00;;;;4924606;29;20636;-71
2024/01/19 13:19:51;;;;;;;19.47;10.70;;;;;2.80;101446.00;;;;4922979;29;20256;-71
2024/01/19 13:22:38;;;;;;;22.63;10.30;;;;;2.80;101462.00;;;;4932800;29;20239;-72
2024/01/19 13:25:24;;;;;;;16.53;9.10;;;;;2.90;101449.00;;;;4934057;29;20239;-76
2024/01/19 13:28:11;;;;;;;19.30;9.97;;;;;2.90;101462.00;;;;4933064;29;20259;-71
2024/01/19 13:30:57;;;;;;;20.80;9.90;;;;;2.90;101450.00;;;;4916143;29;20387;-73
2024/01/19 13:33:44;;;;;;;23.67;10.53;;;;;2.90;101477.00;;;;4925169;29;20767;-73
2024/01/19 13:36:32;;;;;;;16.67;9.63;;;;;2.80;101473.00;;;;4927201;29;20264;-73
2024/01/19 13:39:18;;;;;;;24.43;10.77;;;;;2.70;101482.00;;;;4932504;29;20237;-71
2024/01/19 13:42:05;;;;;;;17.83;8.57;;;;;2.70;101469.00;;;;4932683;29;20299;-70
2024/01/19 13:44:51;;;;;;;18.63;10.07;;;;;2.60;101476.00;;;;4933995;29;20287;-71
2024/01/19 13:47:38;;;;;;;17.23;9.37;;;;;2.70;101464.00;;;;4934094;29;20307;-71